• Join FlightAware (Why Join?)
  • Login
  • US Flag 
11:27PM EST


 

Airport Tracker/Info


-or-


 

Live Flight TrackerFlight Track Log ✈ UPS1122 ✈ 15-May-2013 ✈ KPHL - KBDL

Flight Track Log - Related Links

Times and Time Zones

All times are in EDT time to prevent confusion due to time zone crossing. See the UPS1122 flight status page for this flight to view local times or setup timezone preferences in your user account.

Time Position Orientation Groundspeed Altitude Reporting Facility
EDT Latitude Longitude Course Direction KTS MPH feet Rate Location/Type
03:29AM 39.8746 -75.2269 275° West 154 177 800  Level FlightAware ADS-B
03:29AM 39.8758 -75.2221 72° East 155 178 1,000 2,580 Climbing FlightAware ADS-B
03:29AM 39.8779 -75.2127 74° East 161 185 1,500 1,680 Climbing FlightAware ADS-B
03:29AM 39.8813 -75.1976 74° East 177 204 1,700 720 Climbing FlightAware ADS-B
03:30AM 39.8839 -75.1866 73° East 193 222 1,800 780 Climbing FlightAware ADS-B
03:30AM 39.8852 -75.1813 72° East 200 230 1,900 1,500 Climbing FlightAware ADS-B
03:30AM 39.8857 -75.1778 79° East 202 232 2,000 1,980 Climbing FlightAware ADS-B
03:30AM 39.8861 -75.1741 82° East 205 236 2,100 2,520 Climbing FlightAware ADS-B
03:30AM 39.8860 -75.1694 92° East 205 236 2,300 3,420 Climbing FlightAware ADS-B
03:30AM 39.8858 -75.1652 94° East 205 236 2,500 3,000 Climbing FlightAware ADS-B
03:30AM 39.8845 -75.1574 102° East 204 235 2,800 2,700 Climbing FlightAware ADS-B
03:30AM 39.8800 -75.1384 107° East 219 252 3,500 2,400 Climbing FlightAware ADS-B
03:31AM 39.8767 -75.1229 106° East 238 274 3,900 1,860 Climbing FlightAware ADS-B
03:31AM 39.8721 -75.0979 103° East 260 299 4,400 2,520 Climbing FlightAware ADS-B
03:31AM 39.8671 -75.0716 104° East 275 316 5,300 3,660 Climbing FlightAware ADS-B
03:31AM 39.8623 -75.0470 104° East 278 320 6,300 3,900 Climbing FlightAware ADS-B
03:32AM 39.8568 -75.0203 105° East 284 327 7,400 3,780 Climbing FlightAware ADS-B
03:32AM 39.8512 -74.9934 105° East 291 335 8,400 3,660 Climbing FlightAware ADS-B
03:32AM 39.8461 -74.9677 104° East 296 341 9,300 3,600 Climbing FlightAware ADS-B
03:33AM 39.8357 -74.9140 104° East 309 356 11,100 2,700 Climbing FlightAware ADS-B
03:33AM 39.8239 -74.8560 105° East 350 403 12,000 1,860 Climbing FlightAware ADS-B
03:34AM 39.8104 -74.7907 105° East 389 448 13,000 1,920 Climbing FlightAware ADS-B
03:34AM 39.8071 -74.7678 101° East 397 457 13,300 2,280 Climbing FlightAware ADS-B
03:34AM 39.8071 -74.7491 90° East 398 458 13,700 3,300 Climbing FlightAware ADS-B
03:34AM 39.8098 -74.7254 82° East 397 457 14,300 3,120 Climbing FlightAware ADS-B
03:34AM 39.8131 -74.7093 75° East 396 456 14,600 3,000 Climbing FlightAware ADS-B
03:34AM 39.8177 -74.6937 69° East 395 455 15,000 3,360 Climbing FlightAware ADS-B
03:34AM 39.8250 -74.6751 63° Northeast 392 451 15,500 3,480 Climbing FlightAware ADS-B
03:35AM 39.8330 -74.6595 56° Northeast 389 448 16,000 3,360 Climbing FlightAware ADS-B
03:35AM 39.8424 -74.6455 49° Northeast 384 442 16,400 3,300 Climbing FlightAware ADS-B
03:35AM 39.8560 -74.6302 41° Northeast 378 435 17,000 3,600 Climbing FlightAware ADS-B
03:35AM 39.8635 -74.6237 34° Northeast 374 430 17,300 3,300 Climbing FlightAware ADS-B
03:35AM 39.8695 -74.6193 29° Northeast 372 428 17,500 3,180 Climbing FlightAware ADS-B
03:35AM 39.9073 -74.5985 23° Northeast 374 430 18,800 2,880 Climbing FlightAware ADS-B
03:36AM 39.9410 -74.5778 25° Northeast 387 445 19,700 2,580 Climbing FlightAware ADS-B
03:36AM 39.9711 -74.5543 31° Northeast 395 455 20,600 2,880 Climbing FlightAware ADS-B
03:37AM 40.0166 -74.5140 34° Northeast 398 458 22,100 2,340 Climbing FlightAware ADS-B
03:37AM 40.0632 -74.4711 35° Northeast 393 452 23,000 840 Climbing FlightAware ADS-B
03:38AM 40.1079 -74.4298 35° Northeast 393 452 23,000  Level FlightAware ADS-B
03:38AM 40.1524 -74.3889 35° Northeast 388 447 23,000  Level FlightAware ADS-B
03:39AM 40.1968 -74.3479 35° Northeast 386 444 23,000  Level FlightAware ADS-B
03:39AM 40.2410 -74.3072 35° Northeast 388 447 23,000  Level FlightAware ADS-B
03:40AM 40.2861 -74.2655 35° Northeast 387 445 23,000  Level FlightAware ADS-B
03:40AM 40.3303 -74.2244 35° Northeast 387 445 23,000  Level FlightAware ADS-B
03:41AM 40.3746 -74.1830 35° Northeast 387 445 23,000  Level FlightAware ADS-B
03:41AM 40.4195 -74.1412 35° Northeast 386 444 23,000  Level FlightAware ADS-B
03:42AM 40.4646 -74.0992 35° Northeast 385 443 23,000  Level FlightAware ADS-B
03:42AM 40.5086 -74.0583 35° Northeast 385 443 23,000  Level FlightAware ADS-B
03:43AM 40.5521 -74.0176 35° Northeast 385 443 23,000  Level FlightAware ADS-B
03:43AM 40.5961 -73.9768 35° Northeast 385 443 23,000  Level FlightAware ADS-B
03:44AM 40.6403 -73.9357 35° Northeast 385 443 23,000  Level FlightAware ADS-B
03:44AM 40.6839 -73.8951 35° Northeast 385 443 23,000  Level FlightAware ADS-B
03:45AM 40.7280 -73.8538 35° Northeast 385 443 23,000  Level FlightAware ADS-B
03:45AM 40.7721 -73.8122 36° Northeast 385 443 23,000  Level FlightAware ADS-B
03:46AM 40.8159 -73.7708 36° Northeast 385 443 23,000  Level FlightAware ADS-B
03:46AM 40.8599 -73.7290 36° Northeast 385 443 23,000  Level FlightAware ADS-B
03:47AM 40.9037 -73.6874 36° Northeast 385 443 23,000  Level FlightAware ADS-B
03:47AM 40.9483 -73.6450 36° Northeast 385 443 23,000  Level FlightAware ADS-B
03:48AM 40.9923 -73.6028 36° Northeast 385 443 23,000  Level FlightAware ADS-B
03:48AM 41.0359 -73.5610 36° Northeast 385 443 23,000  Level FlightAware ADS-B
03:49AM 41.0795 -73.5191 36° Northeast 385 443 23,000 -240 Level FlightAware ADS-B
03:49AM 41.1228 -73.4775 36° Northeast 382 440 22,800 -1,500 Descending FlightAware ADS-B
03:50AM 41.1660 -73.4357 36° Northeast 380 437 21,500 -2,580 Descending FlightAware ADS-B
03:50AM 41.2088 -73.3946 36° Northeast 380 437 20,200 -2,280 Descending FlightAware ADS-B
03:51AM 41.2521 -73.3528 36° Northeast 369 425 19,200 -2,100 Descending FlightAware ADS-B
03:51AM 41.3082 -73.2990 36° Northeast 357 411 17,700 -2,400 Descending FlightAware ADS-B
03:52AM 41.3531 -73.2579 34° Northeast 359 413 16,200 -2,580 Descending FlightAware ADS-B
03:53AM 41.4306 -73.1862 35° Northeast 360 414 13,900 -1,740 Descending FlightAware ADS-B
03:54AM 41.2920 -73.3160 215° Southwest 356 410 12,900 -600 Descending FlightAware
03:55AM 41.3390 -73.2740 34° Northeast 356 410 12,900  Level FlightAware
03:55AM 41.3850 -73.2330 34° Northeast 356 410 12,900 -4,740 Level FlightAware
03:56AM 41.6236 -73.0094 34° Northeast 288 331 7,500 -6,780 Descending Boston Center
03:56AM 41.6531 -72.9819 35° Northeast 291 335 6,600 -2,460 Descending Boston Center
03:57AM 41.6886 -72.9517 32° Northeast 279 321 5,000 -2,940 Descending Boston Center
03:57AM 41.7158 -72.9267 34° Northeast 275 316 3,700 -2,220 Descending Boston Center
03:58AM 41.7514 -72.8964 32° Northeast 270 311 2,800 -1,140 Descending Boston Center
03:58AM 41.7764 -72.8744 33° Northeast 264 304 2,600 -540 Descending Boston Center
03:59AM 41.8036 -72.8550 28° Northeast 220 253 2,300 -600 Descending Boston Center
03:59AM 41.8244 -72.8383 31° Northeast 223 257 2,000 -540 Descending Boston Center
04:00AM 41.8453 -72.8164 38° Northeast 184 212 1,800 -240 Descending Boston Center
04:00AM 41.8600 -72.7942 48° Northeast 191 220 1,800 -120 Level Boston Center
04:01AM 41.8769 -72.7719 44° Northeast 162 186 1,700 -420 Descending Boston Center
04:01AM 41.8894 -72.7553 45° Northeast 160 184 1,400 -720 Descending Boston Center
04:02AM 41.9039 -72.7358 45° Northeast 135 155 1,000 -720 Descending Boston Center
04:02AM 41.9167 -72.7219 39° Northeast 138 159 700 -720 Descending Boston Center
04:03AM 41.9311 -72.7025 45° Northeast 129 148 300 -300 Descending Boston Center
04:03AM 41.9394 -72.6911 45° Northeast 138 159 400 240 Climbing Boston Center
04:06AM 41.9333 -72.6833 29° Northeast  Level FlightAware Approximate
04:13AM 41.9392 -72.6834 29° Northeast  Level Estimated
04:14AM 41.9333 -72.6833 29° Northeast  Level FlightAware Approximate
04:15AM 41.9392 -72.6834 29° Northeast  Level Estimated
04:16AM 41.9333 -72.6833 29° Northeast  Level FlightAware Approximate
04:17AM 41.9392 -72.6834 29° Northeast  Level Estimated